Time;durP1;ratioP1;P1;durP2;ratioP2;P2;SDS_P1;SDS_P2;PMS_P1;PMS_P2;Temp;Humidity;BMP_temperature;BMP_pressure;BME280_temperature;BME280_humidity;BME280_pressure;Samples;Min_cycle;Max_cycle;Signal;HPM_P1;HPM_P2
2021/01/23 00:00:19;;;;;;;25.80;17.27;;;;;;;4.53;81.17;98822.02;1736781;80;25706;-79
2021/01/23 00:02:46;;;;;;;26.82;17.00;;;;;;;4.44;81.03;98814.77;1687755;83;25800;-78
2021/01/23 00:05:13;;;;;;;28.75;18.92;;;;;;;4.36;81.08;98818.16;1713177;82;25707;-78
2021/01/23 00:07:40;;;;;;;27.85;17.10;;;;;;;4.37;81.20;98821.09;1710195;82;25618;-77
2021/01/23 00:10:08;;;;;;;30.37;18.87;;;;;;;4.37;81.20;98818.50;1720854;81;26756;-78
2021/01/23 00:12:34;;;;;;;28.87;16.97;;;;;;;4.31;81.27;98823.05;1755096;80;25841;-78
2021/01/23 00:15:00;;;;;;;31.00;19.07;;;;;;;4.25;81.24;98819.80;1750892;80;26320;-78
2021/01/23 00:17:27;;;;;;;30.00;18.02;;;;;;;4.18;81.15;98819.64;1766009;80;25917;-79
2021/01/23 00:19:53;;;;;;;28.00;16.87;;;;;;;4.14;81.33;98813.66;1782372;78;25682;-78
2021/01/23 00:22:19;;;;;;;29.00;17.95;;;;;;;4.12;81.51;98819.01;1784763;79;25944;-78
2021/01/23 00:24:45;;;;;;;31.82;18.62;;;;;;;4.11;81.71;98817.38;1784897;78;26066;-78
2021/01/23 00:27:12;;;;;;;28.57;17.73;;;;;;;4.10;81.81;98814.97;1785522;80;25815;-78
2021/01/23 00:29:38;;;;;;;30.02;17.55;;;;;;;4.15;81.99;98830.81;1751291;80;26381;-78
2021/01/23 00:32:05;;;;;;;29.35;17.32;;;;;;;4.16;82.03;98839.67;1753110;80;25786;-78
2021/01/23 00:34:31;;;;;;;31.00;17.80;;;;;;;4.19;82.07;98835.97;1750561;80;25747;-78
2021/01/23 00:36:58;;;;;;;39.58;25.02;;;;;;;4.23;82.07;98834.20;1785373;78;26364;-78
2021/01/23 00:39:24;;;;;;;32.35;19.73;;;;;;;4.24;81.93;98831.12;1782696;79;25905;-77
2021/01/23 00:41:50;;;;;;;29.60;19.90;;;;;;;4.18;81.80;98835.65;1785162;78;26446;-78
2021/01/23 00:44:18;;;;;;;33.38;21.00;;;;;;;4.14;81.85;98829.97;1759580;80;26914;-79
2021/01/23 00:46:45;;;;;;;32.65;19.12;;;;;;;4.15;82.00;98836.78;1783607;78;25824;-78
2021/01/23 00:49:11;;;;;;;31.97;19.45;;;;;;;4.14;82.06;98841.61;1784528;78;25797;-78
2021/01/23 00:51:37;;;;;;;31.82;19.07;;;;;;;4.13;82.12;98842.59;1770408;79;26002;-79
2021/01/23 00:54:06;;;;;;;34.73;20.92;;;;;;;4.11;82.12;98838.55;1753386;80;26223;-79
2021/01/23 00:56:33;;;;;;;34.90;20.60;;;;;;;4.07;82.03;98838.06;1740780;80;56132;-79
2021/01/23 00:59:00;;;;;;;35.50;22.80;;;;;;;4.02;82.00;98839.03;1759223;80;25793;-78
2021/01/23 01:01:26;;;;;;;38.78;23.92;;;;;;;3.95;81.91;98841.92;1789316;79;26447;-79
2021/01/23 01:03:52;;;;;;;42.03;27.27;;;;;;;3.88;81.88;98848.23;1723269;83;26480;-78
2021/01/23 01:06:18;;;;;;;43.65;23.25;;;;;;;3.81;81.90;98851.59;1782636;79;26333;-79
2021/01/23 01:08:45;;;;;;;34.53;22.48;;;;;;;3.73;81.95;98844.14;1779412;78;25903;-78
2021/01/23 01:11:11;;;;;;;33.95;22.67;;;;;;;3.70;82.05;98844.95;1778399;79;25920;-78
2021/01/23 01:13:37;;;;;;;39.27;23.45;;;;;;;3.70;82.21;98844.47;1777665;79;25950;-78
2021/01/23 01:16:05;;;;;;;35.43;22.77;;;;;;;3.66;82.21;98840.59;1776609;79;25836;-77
2021/01/23 01:18:31;;;;;;;34.50;21.50;;;;;;;3.65;82.30;98834.28;1778174;79;25752;-79
2021/01/23 01:20:57;;;;;;;29.85;19.87;;;;;;;3.63;82.32;98834.46;1776374;79;25626;-78
2021/01/23 01:23:23;;;;;;;36.35;21.50;;;;;;;3.63;82.46;98831.04;1779791;80;26419;-77
2021/01/23 01:25:50;;;;;;;32.23;19.52;;;;;;;3.62;82.47;98830.73;1776312;79;25898;-78
2021/01/23 01:28:16;;;;;;;31.20;21.20;;;;;;;3.62;82.55;98831.53;1777294;79;25777;-77
2021/01/23 01:30:42;;;;;;;35.28;21.07;;;;;;;3.66;82.70;98841.89;1776038;79;26035;-78
2021/01/23 01:33:09;;;;;;;33.98;20.80;;;;;;;3.65;82.60;98847.20;1778292;80;26322;-77
2021/01/23 01:35:36;;;;;;;32.80;21.17;;;;;;;3.62;82.52;98856.08;1778006;79;25793;-77
2021/01/23 01:38:02;;;;;;;27.60;19.65;;;;;;;3.61;82.56;98852.38;1778348;79;25744;-78
2021/01/23 01:40:29;;;;;;;39.67;20.92;;;;;;;3.61;82.61;98853.66;1779093;79;25744;-79
2021/01/23 01:42:57;;;;;;;39.23;21.10;;;;;;;3.62;82.78;98859.95;1778317;80;25863;-78
2021/01/23 01:45:23;;;;;;;33.20;20.70;;;;;;;3.60;82.69;98864.95;1778467;79;26460;-79
2021/01/23 01:47:50;;;;;;;34.83;20.95;;;;;;;3.58;82.58;98870.77;1775505;79;25847;-77
2021/01/23 01:50:17;;;;;;;30.82;21.20;;;;;;;3.56;82.68;98874.80;1776446;79;26441;-77
2021/01/23 01:52:44;;;;;;;33.30;21.95;;;;;;;3.52;82.60;98869.62;1782058;79;25736;-77
2021/01/23 01:55:12;;;;;;;34.95;22.52;;;;;;;3.50;82.69;98883.17;1733475;80;25973;-77
2021/01/23 01:57:39;;;;;;;37.00;23.42;;;;;;;3.51;82.80;98871.38;1739946;81;25710;-78
2021/01/23 02:00:07;;;;;;;35.95;23.00;;;;;;;3.51;82.75;98875.25;1722831;82;26521;-77
2021/01/23 02:03:13;;;;;;;36.15;21.87;;;;;;;3.53;82.86;98869.94;1739253;80;25741;-77
2021/01/23 02:06:13;;;;;;;34.23;22.60;;;;;;;3.42;82.87;98850.37;1738984;80;25799;-77
2021/01/23 02:09:17;;;;;;;;;;;;;;;3.54;82.88;98871.55;1749069;80;25952;-78
2021/01/23 02:12:14;;;;;;;34.30;22.40;;;;;;;3.57;82.90;98877.69;1757342;80;25762;-78
2021/01/23 02:14:58;;;;;;;32.13;22.27;;;;;;;3.52;82.74;98885.12;1759795;80;25903;-78
2021/01/23 02:17:32;;;;;;;32.83;22.37;;;;;;;3.47;82.72;98883.00;1751875;79;25869;-78
2021/01/23 02:20:55;;;;;;;36.60;22.42;;;;;;;3.43;82.69;98883.46;1777351;78;25832;-79
2021/01/23 02:23:38;;;;;;;33.58;22.75;;;;;;;3.39;82.68;98882.16;1782964;80;25832;-79
2021/01/23 02:26:18;;;;;;;30.52;22.02;;;;;;;3.35;82.56;98882.94;1780833;78;25879;-79
2021/01/23 02:29:01;;;;;;;38.17;23.73;;;;;;;3.30;82.55;98875.68;1781647;79;25813;-78
2021/01/23 02:31:35;;;;;;;32.95;21.75;;;;;;;3.27;82.58;98876.45;1716014;81;25743;-79
2021/01/23 02:34:04;;;;;;;37.20;23.77;;;;;;;3.25;82.58;98879.20;1754251;81;25791;-78
2021/01/23 02:36:31;;;;;;;36.03;23.90;;;;;;;3.22;82.51;98887.72;1751145;80;25964;-78
2021/01/23 02:38:58;;;;;;;39.73;24.75;;;;;;;3.29;82.71;98888.73;1750920;80;25834;-78
2021/01/23 02:41:26;;;;;;;34.10;23.02;;;;;;;3.27;82.49;98881.16;1751031;80;26279;-78
2021/01/23 02:43:52;;;;;;;40.23;25.95;;;;;;;3.24;82.36;98885.80;1751343;80;25818;-80
2021/01/23 02:46:19;;;;;;;40.88;26.33;;;;;;;3.20;82.18;98891.77;1754523;80;25708;-79
2021/01/23 02:48:48;;;;;;;37.45;26.17;;;;;;;3.20;82.15;98884.02;1749310;80;25924;-78
2021/01/23 02:51:51;;;;;;;40.03;25.68;;;;;;;3.20;82.27;98895.63;1753206;80;25964;-79
2021/01/23 02:54:32;;;;;;;41.65;27.15;;;;;;;3.22;82.26;98900.17;1753524;80;26610;-79
2021/01/23 02:57:04;;;;;;;41.58;27.27;;;;;;;3.21;82.17;98904.19;1750167;80;25854;-78
2021/01/23 02:59:32;;;;;;;46.40;29.27;;;;;;;3.19;82.14;98907.39;1754070;80;26247;-77
2021/01/23 03:02:02;;;;;;;41.68;26.37;;;;;;;3.10;81.89;98904.77;1752442;81;25822;-78
2021/01/23 03:04:30;;;;;;;45.35;27.95;;;;;;;3.10;81.89;98904.77;1753530;81;25874;-79
2021/01/23 03:06:57;;;;;;;44.75;29.45;;;;;;;3.03;82.29;98919.27;1752445;80;25868;-79
2021/01/23 03:09:25;;;;;;;42.17;27.37;;;;;;;3.03;82.29;98919.27;1750864;80;26351;-80
2021/01/23 03:11:53;;;;;;;45.50;31.30;;;;;;;2.87;81.96;98897.23;1745260;81;26055;-79
2021/01/23 03:14:20;;;;;;;42.15;28.35;;;;;;;2.94;82.14;98910.31;1747108;81;26734;-79
2021/01/23 03:16:49;;;;;;;38.73;27.13;;;;;;;2.94;82.25;98913.70;1746374;80;25856;-79
2021/01/23 03:19:17;;;;;;;39.00;27.17;;;;;;;2.90;82.23;98911.11;1715164;81;26523;-79
2021/01/23 03:21:43;;;;;;;39.35;25.97;;;;;;;2.89;82.30;98912.89;1725907;81;26371;-77
2021/01/23 03:24:10;;;;;;;36.93;25.62;;;;;;;2.93;82.34;98906.13;1725625;82;25856;-78
2021/01/23 03:26:37;;;;;;;42.30;26.52;;;;;;;2.97;82.43;98908.72;1726377;81;25740;-77
2021/01/23 03:29:04;;;;;;;39.53;26.35;;;;;;;2.92;82.44;98892.42;1716186;81;25835;-79
2021/01/23 03:31:31;;;;;;;43.00;26.20;;;;;;;3.11;82.45;98906.89;1725580;81;25370;-76
2021/01/23 03:33:57;;;;;;;38.83;26.60;;;;;;;3.11;82.18;98906.89;1725360;81;26429;-79
2021/01/23 03:36:25;;;;;;;39.60;27.32;;;;;;;3.08;82.04;98908.46;1726189;81;25812;-77
2021/01/23 03:38:52;;;;;;;39.98;27.07;;;;;;;2.94;82.18;98885.80;1723991;81;25573;-77
2021/01/23 03:41:19;;;;;;;40.52;28.20;;;;;;;2.91;81.60;98908.05;1725476;82;25738;-78
2021/01/23 03:43:46;;;;;;;39.10;27.00;;;;;;;2.89;81.82;98905.61;1725813;81;25841;-77
2021/01/23 03:46:13;;;;;;;45.40;29.30;;;;;;;2.86;81.82;98908.49;1725995;82;26330;-77
2021/01/23 03:48:39;;;;;;;39.38;27.80;;;;;;;2.82;81.84;98910.58;1723482;81;25866;-77
2021/01/23 03:51:06;;;;;;;46.08;28.70;;;;;;;2.77;81.68;98890.87;1726146;82;25590;-77
2021/01/23 03:53:33;;;;;;;45.28;28.40;;;;;;;2.77;81.68;98890.87;1735002;81;25868;-79
2021/01/23 03:55:59;;;;;;;40.73;27.50;;;;;;;2.73;81.91;98883.11;1725993;82;25910;-77
2021/01/23 03:58:25;;;;;;;40.25;25.70;;;;;;;2.71;82.06;98889.38;1723482;81;25820;-77
2021/01/23 04:00:52;;;;;;;43.20;25.73;;;;;;;2.73;82.06;98896.02;1743599;80;25829;-78
2021/01/23 04:03:18;;;;;;;35.83;26.37;;;;;;;2.73;81.94;98887.44;1744839;80;25793;-78
2021/01/23 04:05:44;;;;;;;37.53;26.37;;;;;;;2.64;81.91;98870.62;1746896;81;26963;-77
2021/01/23 04:08:11;;;;;;;39.80;28.52;;;;;;;2.64;81.91;98870.62;1742762;80;26265;-77
2021/01/23 04:10:38;;;;;;;43.90;28.95;;;;;;;2.53;81.89;98850.23;1747190;81;25912;-77
2021/01/23 04:13:04;;;;;;;44.90;30.55;;;;;;;2.63;82.12;98857.41;1745431;80;26448;-77
2021/01/23 04:15:31;;;;;;;45.58;30.70;;;;;;;2.62;82.08;98851.93;1745091;81;25853;-77
2021/01/23 04:17:57;;;;;;;43.35;30.75;;;;;;;2.64;82.14;98859.50;1725888;81;26215;-78
2021/01/23 04:20:24;;;;;;;47.45;29.60;;;;;;;2.63;82.11;98863.85;1724435;81;25866;-77
2021/01/23 04:22:50;;;;;;;40.48;28.10;;;;;;;2.62;82.20;98854.99;1722878;81;26392;-77
2021/01/23 04:25:16;;;;;;;40.45;27.00;;;;;;;2.45;82.11;98830.84;1726940;81;25783;-77
2021/01/23 04:27:42;;;;;;;42.73;27.02;;;;;;;2.48;82.23;98841.33;1727325;82;25771;-78
2021/01/23 04:30:11;;;;;;;38.70;26.90;;;;;;;2.50;82.45;98846.67;1704392;81;25844;-78
2021/01/23 04:32:38;;;;;;;39.27;27.30;;;;;;;2.48;82.70;98855.03;1700579;82;25874;-78
2021/01/23 04:35:11;;;;;;;36.70;24.32;;;;;;;2.49;82.86;98841.69;1700215;82;26475;-76
2021/01/23 04:37:41;;;;;;;37.38;27.15;;;;;;;2.53;83.03;98842.98;1719637;81;25834;-76
2021/01/23 04:40:10;;;;;;;35.85;24.95;;;;;;;2.53;83.03;98842.98;1747766;80;25906;-77
2021/01/23 04:42:42;;;;;;;33.83;23.85;;;;;;;2.61;83.26;98852.06;1714356;81;26418;-77
2021/01/23 04:45:11;;;;;;;32.67;22.58;;;;;;;2.68;83.29;98847.93;1729094;82;25986;-78
2021/01/23 04:47:37;;;;;;;36.75;25.05;;;;;;;2.70;83.22;98840.02;1743928;80;25748;-77
2021/01/23 04:50:09;;;;;;;36.53;24.92;;;;;;;2.72;83.14;98841.49;1741073;80;25825;-78
2021/01/23 04:52:39;;;;;;;40.55;27.27;;;;;;;2.74;83.25;98832.33;1701767;82;25797;-77
2021/01/23 04:55:08;;;;;;;40.48;25.77;;;;;;;2.64;83.59;98782.92;1725450;82;26759;-78
2021/01/23 04:57:35;;;;;;;36.83;25.95;;;;;;;2.64;83.59;98782.92;1687183;83;25884;-77
2021/01/23 05:00:01;;;;;;;32.42;24.07;;;;;;;2.75;83.45;98797.33;1699199;82;25817;-77
2021/01/23 05:02:28;;;;;;;36.73;25.40;;;;;;;2.74;83.49;98797.50;1698366;83;25809;-79
2021/01/23 05:05:01;;;;;;;35.55;23.98;;;;;;;2.73;83.55;98794.57;1697772;83;25875;-78
2021/01/23 05:07:37;;;;;;;33.33;23.67;;;;;;;2.70;83.57;98789.73;1744600;81;26428;-77
2021/01/23 05:10:24;;;;;;;33.70;22.52;;;;;;;2.68;83.59;98793.77;1745825;81;25538;-78
2021/01/23 05:12:56;;;;;;;32.50;22.05;;;;;;;2.65;83.78;98776.02;1745730;81;26389;-77
2021/01/23 05:15:26;;;;;;;33.78;22.52;;;;;;;2.65;83.78;98776.02;1744456;80;25789;-78
2021/01/23 05:17:59;;;;;;;30.57;21.05;;;;;;;2.66;83.76;98783.59;1744673;81;25683;-77
2021/01/23 05:20:40;;;;;;;30.62;21.17;;;;;;;2.69;83.79;98785.54;1743571;81;26411;-77
2021/01/23 05:23:14;;;;;;;35.73;23.38;;;;;;;2.66;83.79;98769.89;1744876;81;25773;-78
2021/01/23 05:25:44;;;;;;;32.38;23.02;;;;;;;2.76;83.78;98778.33;1731510;82;25773;-77
2021/01/23 05:28:14;;;;;;;33.18;23.42;;;;;;;2.78;83.86;98781.57;1689840;82;25995;-77
2021/01/23 05:30:50;;;;;;;34.27;23.55;;;;;;;2.80;83.88;98781.40;1716683;81;25805;-78
2021/01/23 05:33:22;;;;;;;34.35;23.05;;;;;;;2.80;83.84;98778.82;1722444;81;26462;-78
2021/01/23 05:36:02;;;;;;;38.10;25.08;;;;;;;2.79;83.86;98781.08;1741382;80;26917;-79
2021/01/23 05:38:37;;;;;;;36.83;25.00;;;;;;;2.76;83.92;98778.33;1740791;80;26437;-78
2021/01/23 05:41:12;;;;;;;35.48;26.17;;;;;;;2.75;83.95;98792.66;1717068;81;25918;-79
2021/01/23 05:43:49;;;;;;;37.15;24.57;;;;;;;2.74;84.07;98794.92;1724301;81;25792;-78
2021/01/23 05:46:35;;;;;;;38.65;25.08;;;;;;;2.75;84.27;98796.04;1718553;81;25739;-77
2021/01/23 05:49:01;;;;;;;38.83;25.80;;;;;;;2.77;84.32;98781.71;1726264;81;26456;-78
2021/01/23 05:51:27;;;;;;;34.70;24.85;;;;;;;2.80;84.16;98778.82;1724649;81;26435;-78
2021/01/23 05:53:54;;;;;;;36.83;23.98;;;;;;;2.80;84.16;98778.82;1717616;81;25855;-78
2021/01/23 05:56:20;;;;;;;38.88;24.80;;;;;;;2.83;84.51;98789.63;1721999;81;25823;-77
2021/01/23 05:58:47;;;;;;;36.20;23.00;;;;;;;2.84;84.57;98796.42;1709066;81;26528;-78
2021/01/23 06:01:16;;;;;;;38.55;26.37;;;;;;;2.85;84.35;98806.26;1724416;81;25800;-78
2021/01/23 06:03:49;;;;;;;39.17;25.73;;;;;;;2.85;84.35;98806.26;1723675;81;25808;-78
2021/01/23 06:06:16;;;;;;;36.75;26.90;;;;;;;2.90;84.69;98798.87;1724751;81;25796;-77
2021/01/23 06:08:45;;;;;;;38.98;27.27;;;;;;;2.93;84.45;98802.42;1721330;81;25850;-77
2021/01/23 06:11:26;;;;;;;41.55;28.87;;;;;;;2.93;84.45;98802.42;1727601;81;25842;-77
2021/01/23 06:13:56;;;;;;;40.23;28.00;;;;;;;2.92;84.84;98810.31;1727535;81;25767;-78
2021/01/23 06:16:37;;;;;;;43.38;29.23;;;;;;;2.95;84.99;98810.03;1731252;81;25484;-77
2021/01/23 06:19:17;;;;;;;40.88;26.85;;;;;;;2.99;85.24;98816.48;1753404;80;26369;-79
2021/01/23 06:21:48;;;;;;;38.65;25.37;;;;;;;2.99;85.24;98816.48;1782777;79;25787;-78
2021/01/23 06:24:16;;;;;;;;;;;;;;;2.99;85.15;98812.61;1783516;79;26474;-77
2021/01/23 06:26:58;;;;;;;41.40;25.45;;;;;;;3.04;85.29;98815.54;1782755;79;26316;-77
2021/01/23 06:29:33;;;;;;;38.42;24.37;;;;;;;3.16;85.56;98797.50;1778766;78;26531;-77
2021/01/23 06:32:23;;;;;;;35.88;25.35;;;;;;;3.07;85.40;98766.98;1783650;79;25927;-78
2021/01/23 06:34:53;;;;;;;35.23;23.62;;;;;;;3.07;85.40;98766.98;1780793;78;26250;-78
2021/01/23 06:37:33;;;;;;;;;;;;;;;3.24;85.42;98770.42;1762086;79;25838;-80
2021/01/23 06:40:25;;;;;;;42.15;24.27;;;;;;;3.27;85.41;98775.75;1780045;79;26343;-77
2021/01/23 06:42:53;;;;;;;37.00;24.85;;;;;;;3.28;85.54;98771.73;1783328;79;25809;-79
2021/01/23 06:45:34;;;;;;;35.23;24.95;;;;;;;3.32;85.67;98761.41;1776451;79;25818;-78
2021/01/23 06:48:01;;;;;;;38.30;24.80;;;;;;;3.32;85.67;98761.41;1776333;78;26151;-79
2021/01/23 06:50:32;;;;;;;36.60;23.75;;;;;;;3.32;85.66;98761.41;1776821;78;26249;-78
2021/01/23 06:52:59;;;;;;;34.75;22.73;;;;;;;3.32;85.74;98751.56;1776612;79;25839;-79
2021/01/23 06:55:51;;;;;;;36.35;23.10;;;;;;;3.33;85.74;98761.75;1722445;81;25920;-78
2021/01/23 06:58:24;;;;;;;37.80;23.45;;;;;;;3.36;85.86;98760.63;1721835;81;25980;-79
2021/01/23 07:01:00;;;;;;;31.33;22.15;;;;;;;3.40;86.04;98761.91;1775852;79;25941;-79
2021/01/23 07:03:28;;;;;;;35.55;21.40;;;;;;;3.42;86.00;98754.82;1781341;78;26523;-79
2021/01/23 07:06:00;;;;;;;28.17;19.92;;;;;;;3.45;85.96;98757.58;1781895;80;25774;-79
2021/01/23 07:08:32;;;;;;;33.75;22.52;;;;;;;3.49;85.83;98756.27;1776611;78;26347;-78
2021/01/23 07:11:12;;;;;;;30.90;22.22;;;;;;;3.55;86.08;98754.36;1769674;79;25776;-78
2021/01/23 07:14:02;;;;;;;36.58;25.62;;;;;;;3.58;85.94;98753.23;1756606;80;25789;-79
2021/01/23 07:16:31;;;;;;;39.08;24.37;;;;;;;3.59;86.08;98749.19;1757488;79;27108;-79
2021/01/23 07:19:03;;;;;;;37.33;24.43;;;;;;;3.59;86.11;98740.64;1736857;80;26375;-79
2021/01/23 07:21:33;;;;;;;33.45;22.75;;;;;;;3.59;86.15;98741.93;1754062;80;25908;-78
2021/01/23 07:24:01;;;;;;;41.20;25.82;;;;;;;3.58;86.30;98738.55;1759172;80;25899;-79
2021/01/23 07:26:29;;;;;;;32.53;22.25;;;;;;;3.59;86.37;98741.93;1756296;80;25925;-80
2021/01/23 07:28:56;;;;;;;29.25;20.85;;;;;;;3.62;86.57;98734.66;1754916;80;25823;-79
2021/01/23 07:31:27;;;;;;;35.68;24.80;;;;;;;3.67;86.74;98725.95;1752061;79;25938;-80
2021/01/23 07:33:55;;;;;;;30.77;21.62;;;;;;;3.71;86.87;98725.96;1756752;79;26259;-78
2021/01/23 07:36:37;;;;;;;33.05;22.67;;;;;;;3.78;87.00;98717.06;1756722;80;26265;-80
2021/01/23 07:39:15;;;;;;;35.80;24.82;;;;;;;3.83;87.08;98714.80;1759807;79;25867;-79
2021/01/23 07:41:48;;;;;;;37.78;25.17;;;;;;;3.89;87.10;98712.05;1755740;80;25824;-79
2021/01/23 07:44:16;;;;;;;31.75;23.75;;;;;;;3.95;87.12;98711.39;1755783;80;26570;-80
2021/01/23 07:46:45;;;;;;;33.25;24.75;;;;;;;3.99;87.16;98704.45;1759364;79;26335;-80
2021/01/23 07:49:27;;;;;;;43.10;30.97;;;;;;;4.05;87.20;98706.86;1752393;80;25721;-78
2021/01/23 07:52:09;;;;;;;57.55;41.40;;;;;;;4.10;87.22;98705.09;1759899;80;25581;-78
2021/01/23 07:54:53;;;;;;;59.15;43.52;;;;;;;4.14;87.28;98701.98;1754910;79;26603;-78
2021/01/23 07:57:19;;;;;;;51.50;37.63;;;;;;;4.15;87.29;98691.98;1754400;79;25932;-78
2021/01/23 07:59:47;;;;;;;41.88;29.80;;;;;;;4.15;87.30;98693.77;1755067;79;25520;-78
2021/01/23 08:02:17;;;;;;;34.38;25.68;;;;;;;4.14;87.38;98683.89;1750903;79;26516;-78
2021/01/23 08:04:52;;;;;;;;;;;;;;;4.14;87.38;98682.59;1751695;79;25898;-80
2021/01/23 08:07:29;;;;;;;34.27;26.73;;;;;;;4.16;87.45;98690.20;1735272;79;27220;-80
2021/01/23 08:10:18;;;;;;;28.50;21.97;;;;;;;4.16;87.45;98691.50;1748530;79;25882;-81
2021/01/23 08:13:03;;;;;;;32.08;24.98;;;;;;;4.17;87.48;98681.47;1753471;79;26468;-81
2021/01/23 08:15:36;;;;;;;37.17;26.97;;;;;;;4.22;87.57;98688.24;1752628;79;26451;-78
2021/01/23 08:18:16;;;;;;;29.48;22.37;;;;;;;4.27;87.63;98674.83;1751625;79;26445;-80
2021/01/23 08:20:42;;;;;;;34.00;26.52;;;;;;;4.29;87.60;98674.98;1754585;79;25640;-79
2021/01/23 08:23:16;;;;;;;33.98;25.55;;;;;;;4.32;87.64;98675.14;1740203;81;26353;-80
2021/01/23 08:25:55;;;;;;;31.23;24.60;;;;;;;4.36;87.70;98677.20;1754956;80;25777;-80
2021/01/23 08:28:42;;;;;;;33.90;25.30;;;;;;;4.41;87.78;98672.83;1753823;79;26747;-79
2021/01/23 08:31:25;;;;;;;33.95;26.07;;;;;;;4.45;87.73;98662.48;1757374;80;25829;-79
2021/01/23 08:33:54;;;;;;;36.33;25.77;;;;;;;4.49;87.79;98663.75;1757644;80;25846;-80
2021/01/23 08:36:26;;;;;;;32.20;24.87;;;;;;;4.52;87.83;98654.84;1756609;80;30919;-78
2021/01/23 08:39:04;;;;;;;36.45;27.20;;;;;;;4.53;87.83;98655.16;1755885;80;26059;-79
2021/01/23 08:41:36;;;;;;;31.17;22.58;;;;;;;4.54;87.88;98652.41;1757668;80;25805;-77
2021/01/23 08:44:03;;;;;;;29.40;22.02;;;;;;;4.54;87.98;98646.44;1756022;80;26755;-78
2021/01/23 08:46:29;;;;;;;30.45;20.97;;;;;;;4.57;87.99;98652.08;1753976;80;25831;-78
2021/01/23 08:48:56;;;;;;;27.52;20.30;;;;;;;4.59;88.02;98641.08;1734978;80;25821;-80
2021/01/23 08:51:22;;;;;;;28.02;19.65;;;;;;;4.61;88.05;98648.66;1753265;79;25770;-79
2021/01/23 08:53:48;;;;;;;23.15;17.70;;;;;;;4.59;87.97;98647.55;1753501;79;26136;-80
2021/01/23 08:56:15;;;;;;;26.05;19.87;;;;;;;4.62;88.16;98656.26;1753762;79;25818;-79
2021/01/23 08:58:42;;;;;;;24.18;18.05;;;;;;;4.66;88.20;98669.66;1732878;79;25936;-78
2021/01/23 09:01:09;;;;;;;31.62;22.85;;;;;;;4.71;88.24;98660.10;1753910;79;25878;-79
2021/01/23 09:03:35;;;;;;;26.52;18.50;;;;;;;4.73;88.30;98647.31;1752421;79;26429;-78
2021/01/23 09:06:08;;;;;;;23.20;18.35;;;;;;;4.77;88.41;98660.22;1751738;79;25992;-78
2021/01/23 09:08:35;;;;;;;22.67;16.67;;;;;;;4.78;88.45;98649.41;1754684;79;25955;-78
2021/01/23 09:11:01;;;;;;;23.25;17.07;;;;;;;4.85;88.46;98644.64;1750427;79;26350;-78
2021/01/23 09:13:28;;;;;;;25.37;20.08;;;;;;;4.92;88.49;98646.08;1765447;79;26018;-80
2021/01/23 09:15:54;;;;;;;27.60;20.55;;;;;;;4.92;88.47;98637.02;1763823;79;26848;-78
2021/01/23 09:18:20;;;;;;;24.65;19.77;;;;;;;5.01;88.46;98640.36;1745850;80;25761;-78
2021/01/23 09:20:47;;;;;;;26.35;18.95;;;;;;;5.03;88.34;98634.52;1745058;80;25741;-80
2021/01/23 09:23:15;;;;;;;25.43;20.02;;;;;;;5.03;88.32;98643.09;1745770;80;26392;-78
2021/01/23 09:25:42;;;;;;;28.40;21.00;;;;;;;5.05;88.40;98639.84;1746705;80;25782;-78
2021/01/23 09:28:10;;;;;;;23.92;18.55;;;;;;;5.04;88.35;98636.92;1726025;81;25694;-80
2021/01/23 09:30:37;;;;;;;26.42;19.10;;;;;;;5.04;88.42;98641.30;1722243;81;25854;-78
2021/01/23 09:33:03;;;;;;;24.35;16.93;;;;;;;5.03;88.44;98630.14;1723962;81;25942;-79
2021/01/23 09:35:30;;;;;;;33.15;26.52;;;;;;;5.05;88.48;98633.38;1724012;81;25786;-78
2021/01/23 09:37:56;;;;;;;29.42;22.17;;;;;;;5.09;88.52;98617.00;1725849;81;25965;-79
2021/01/23 09:40:22;;;;;;;26.90;20.57;;;;;;;5.12;88.51;98608.38;1742903;80;26704;-78
2021/01/23 09:42:48;;;;;;;32.88;26.23;;;;;;;5.17;88.51;98612.25;1724021;81;26371;-79
2021/01/23 09:45:18;;;;;;;29.55;25.82;;;;;;;5.19;88.44;98608.52;1747015;80;25847;-80
2021/01/23 09:47:44;;;;;;;25.05;20.12;;;;;;;5.20;88.37;98615.29;1723557;81;26468;-79
2021/01/23 09:50:13;;;;;;;31.27;26.02;;;;;;;5.21;88.44;98607.03;1746060;80;26370;-79
2021/01/23 09:52:39;;;;;;;34.03;27.37;;;;;;;5.23;88.42;98607.67;1727568;81;25935;-78
2021/01/23 09:55:08;;;;;;;33.38;27.70;;;;;;;5.26;88.47;98603.43;1713672;81;25833;-80
2021/01/23 09:57:35;;;;;;;27.02;21.40;;;;;;;5.27;88.49;98607.16;1726591;81;25328;-78
2021/01/23 10:00:05;;;;;;;29.18;22.58;;;;;;;5.28;88.55;98607.45;1726624;81;25780;-80
2021/01/23 10:02:36;;;;;;;27.22;21.05;;;;;;;5.27;88.54;98614.92;1726977;81;25683;-78
2021/01/23 10:05:03;;;;;;;25.23;20.08;;;;;;;5.26;88.53;98615.88;1727816;81;25491;-80
2021/01/23 10:07:30;;;;;;;27.77;21.07;;;;;;;5.24;88.52;98611.39;1703775;82;26033;-78
2021/01/23 10:09:56;;;;;;;28.60;19.80;;;;;;;5.28;88.66;98606.66;1723660;81;25728;-79
2021/01/23 10:12:22;;;;;;;28.40;19.65;;;;;;;5.32;88.62;98596.28;1737586;80;25813;-79
2021/01/23 10:14:49;;;;;;;31.68;22.70;;;;;;;5.34;88.67;98602.87;1725899;81;25888;-79
2021/01/23 10:17:15;;;;;;;29.90;20.17;;;;;;;5.35;88.62;98602.41;1704189;82;25898;-80
2021/01/23 10:19:42;;;;;;;33.28;23.42;;;;;;;5.38;88.62;98605.94;1723459;81;25848;-79
2021/01/23 10:22:08;;;;;;;37.28;22.32;;;;;;;5.40;88.53;98596.20;1722191;81;26358;-79
2021/01/23 10:24:34;;;;;;;35.50;22.95;;;;;;;5.42;88.52;98588.25;1723887;81;25819;-79
2021/01/23 10:27:03;;;;;;;33.50;21.73;;;;;;;5.46;88.61;98592.11;1723173;81;25828;-79
2021/01/23 10:29:29;;;;;;;26.15;19.70;;;;;;;5.51;88.64;98593.66;1671654;84;25862;-79
2021/01/23 10:31:56;;;;;;;27.15;19.82;;;;;;;5.52;88.58;98589.61;1674278;84;25811;-77
2021/01/23 10:34:22;;;;;;;24.75;20.35;;;;;;;5.54;88.50;98590.74;1689249;83;25844;-79
2021/01/23 10:36:49;;;;;;;24.35;17.70;;;;;;;5.57;88.52;98583.91;1676215;84;26369;-78
2021/01/23 10:39:15;;;;;;;25.25;18.05;;;;;;;5.59;88.51;98579.83;1688065;83;25867;-79
2021/01/23 10:41:47;;;;;;;23.00;17.57;;;;;;;5.60;88.39;98580.95;1688626;83;25415;-77
2021/01/23 10:44:14;;;;;;;24.25;18.55;;;;;;;5.62;88.35;98580.30;1677903;83;26665;-79
2021/01/23 10:46:46;;;;;;;27.65;19.92;;;;;;;5.62;88.32;98573.81;1659223;84;25813;-78
2021/01/23 10:49:12;;;;;;;32.38;20.85;;;;;;;5.65;88.36;98573.95;1619907;85;26235;-80
2021/01/23 10:51:38;;;;;;;26.70;20.12;;;;;;;5.69;88.42;98570.02;1655029;84;26673;-78
2021/01/23 10:54:05;;;;;;;33.70;21.27;;;;;;;5.68;88.34;98565.83;1648246;85;26707;-80
2021/01/23 10:56:32;;;;;;;26.85;19.50;;;;;;;5.66;88.36;98572.96;1602355;87;26224;-78
2021/01/23 10:59:01;;;;;;;32.80;20.70;;;;;;;5.64;88.31;98572.33;1635306;84;26015;-78
2021/01/23 11:01:27;;;;;;;24.65;17.35;;;;;;;5.63;88.29;98582.39;1638193;85;25959;-78
2021/01/23 11:03:53;;;;;;;26.42;17.65;;;;;;;5.62;88.24;98602.80;1617227;85;25828;-78
2021/01/23 11:06:19;;;;;;;24.27;17.32;;;;;;;5.62;88.29;98580.77;1634405;85;25899;-78
2021/01/23 11:08:45;;;;;;;25.12;17.45;;;;;;;5.65;88.43;98585.13;1622509;86;26585;-81
2021/01/23 11:11:12;;;;;;;25.90;18.85;;;;;;;5.69;88.38;98582.97;1624489;86;25967;-79
2021/01/23 11:13:38;;;;;;;26.52;18.82;;;;;;;5.71;88.36;98581.02;1655792;84;25802;-77
2021/01/23 11:16:10;;;;;;;21.87;15.90;;;;;;;5.71;88.37;98577.92;1641176;84;26498;-78
2021/01/23 11:18:37;;;;;;;24.75;17.32;;;;;;;5.73;88.47;98582.45;1609577;85;25927;-77
2021/01/23 11:21:05;;;;;;;23.98;16.32;;;;;;;5.76;88.52;98580.80;1615504;86;25735;-78
2021/01/23 11:23:32;;;;;;;23.18;17.10;;;;;;;5.80;88.53;98570.86;1614474;85;25674;-79
2021/01/23 11:25:58;;;;;;;23.30;17.55;;;;;;;5.82;88.45;98579.27;1642591;84;25848;-78
2021/01/23 11:28:25;;;;;;;23.87;17.30;;;;;;;5.83;88.48;98575.69;1676282;84;26091;-78
2021/01/23 11:30:53;;;;;;;27.95;16.60;;;;;;;5.85;88.45;98572.43;1675085;84;25937;-78
2021/01/23 11:33:21;;;;;;;24.40;16.75;;;;;;;5.86;88.37;98568.05;1685893;83;25713;-78
2021/01/23 11:35:48;;;;;;;24.37;17.23;;;;;;;5.87;88.34;98567.87;1686050;83;25948;-78
2021/01/23 11:38:14;;;;;;;24.77;17.67;;;;;;;5.85;88.17;98563.86;1687534;83;25759;-76
2021/01/23 11:40:42;;;;;;;27.00;19.23;;;;;;;5.84;88.33;98550.09;1661315;83;25651;-79